Terminal Aerodrome Forecast
Issued by NWS

Home | Current Version | Previous Version | Text Only | Print | Product List | Glossary On
Versions: 1 2 3 4 5 6 7 8 9 10 11 12 13 14 15 16 17
815
FTUS41 KLWX 022338
TAFMTN
TAF
KMTN 022338Z 0300/0324 26011KT P6SM BKN040
     FM031400 30014G22KT P6SM BKN040
     FM032300 30011KT P6SM SCT040
      AMD NOT SKED 0302/0312=

USA.gov is the U.S. government's official web portal to all federal, state and local government web resources and services.